createdAt,value
2023-02-27T00:00:36.287Z,48.73
2023-02-27T00:03:44.753Z,48.31
2023-02-27T00:06:48.813Z,48.71
2023-02-27T00:09:53.790Z,48.52
2023-02-27T00:13:08.062Z,48.36
2023-02-27T00:16:13.024Z,46.54
2023-02-27T00:19:17.850Z,46.04
2023-02-27T00:22:21.597Z,47.21
2023-02-27T00:25:30.942Z,47.58
2023-02-27T00:28:34.992Z,46.61
2023-02-27T00:31:39.232Z,47.46
2023-02-27T00:34:43.146Z,47.11
2023-02-27T00:37:47.828Z,45.81
2023-02-27T00:40:52.266Z,49.46
2023-02-27T00:43:56.230Z,46.95
2023-02-27T00:47:00.676Z,45.42
2023-02-27T00:50:14.878Z,45.72
2023-02-27T00:53:18.961Z,45.05
2023-02-27T00:56:24.490Z,45.06
2023-02-27T00:59:29.307Z,44.77
2023-02-27T01:02:33.747Z,44.08
2023-02-27T01:05:48.056Z,44.74
2023-02-27T01:08:56.742Z,44.99
2023-02-27T01:12:01.816Z,44.65
2023-02-27T01:15:17.725Z,43.67
2023-02-27T01:18:28.684Z,43.73
2023-02-27T01:21:32.750Z,44.44
2023-02-27T01:24:48.518Z,44.37
2023-02-27T01:27:52.798Z,44.53
2023-02-27T01:30:56.799Z,45.41
2023-02-27T01:34:01.347Z,45.50
2023-02-27T01:37:05.906Z,44.33
2023-02-27T01:40:11.863Z,44.60
2023-02-27T01:43:23.365Z,44.85
2023-02-27T01:46:31.519Z,44.39
2023-02-27T01:49:35.619Z,44.99
2023-02-27T01:52:41.548Z,45.59
2023-02-27T01:55:48.927Z,45.63
2023-02-27T01:58:58.431Z,45.80
2023-02-27T02:02:20.600Z,44.94
2023-02-27T02:05:24.924Z,45.64
2023-02-27T02:08:32.326Z,45.39
2023-02-27T02:11:38.173Z,45.56
2023-02-27T02:14:42.374Z,46.00
2023-02-27T02:17:54.888Z,47.03
2023-02-27T02:21:06.763Z,47.87
2023-02-27T02:24:33.687Z,48.27
2023-02-27T02:27:50.499Z,48.06
2023-02-27T02:31:37.678Z,47.78
2023-02-27T02:35:12.548Z,47.99
2023-02-27T02:42:24.712Z,46.29
2023-02-27T02:45:39.336Z,45.69
2023-02-27T02:48:55.519Z,45.22
2023-02-27T02:52:17.355Z,46.79
2023-02-27T02:55:48.649Z,44.53
2023-02-27T02:59:08.087Z,44.78
2023-02-27T03:02:17.545Z,44.59
2023-02-27T03:05:36.716Z,45.77
2023-02-27T03:08:56.293Z,46.07
2023-02-27T03:12:02.939Z,44.82
2023-02-27T03:15:28.108Z,44.91
2023-02-27T03:18:46.024Z,45.24
2023-02-27T03:22:08.279Z,45.95
2023-02-27T03:25:30.051Z,45.37
2023-02-27T03:28:40.878Z,44.69
2023-02-27T03:31:51.885Z,45.99
2023-02-27T03:35:08.195Z,45.52
2023-02-27T03:42:10.455Z,42.95
2023-02-27T03:46:02.702Z,42.21
2023-02-27T03:49:17.589Z,43.65
2023-02-27T03:52:32.731Z,42.93
2023-02-27T03:55:41.925Z,41.65
2023-02-27T03:58:45.850Z,40.99
2023-02-27T04:02:01.153Z,41.34
2023-02-27T04:05:06.450Z,41.66
2023-02-27T04:08:43.197Z,40.50
2023-02-27T04:12:03.704Z,39.03
2023-02-27T04:15:33.757Z,39.68
2023-02-27T04:19:10.354Z,39.09
2023-02-27T04:22:50.967Z,38.57
2023-02-27T04:26:07.880Z,38.35
2023-02-27T04:29:23.896Z,39.47
2023-02-27T04:32:40.217Z,39.19
2023-02-27T04:36:08.789Z,37.89
2023-02-27T04:39:33.933Z,38.85
2023-02-27T04:42:47.519Z,39.07
2023-02-27T04:45:52.503Z,38.43
2023-02-27T04:49:13.851Z,38.55
2023-02-27T04:52:33.300Z,40.33
2023-02-27T04:55:44.745Z,41.17
2023-02-27T04:58:59.333Z,38.97
2023-02-27T05:02:20.243Z,38.50
2023-02-27T05:05:38.815Z,40.06
2023-02-27T05:09:25.218Z,39.97
2023-02-27T05:12:36.905Z,38.85
2023-02-27T05:15:52.049Z,39.30
2023-02-27T05:19:04.070Z,39.78
2023-02-27T05:22:37.084Z,39.09
2023-02-27T05:29:52.230Z,38.72
2023-02-27T05:32:58.719Z,39.95
2023-02-27T05:36:21.408Z,39.80
2023-02-27T05:39:39.141Z,38.31
2023-02-27T05:42:51.534Z,38.81
2023-02-27T05:46:06.724Z,37.39
2023-02-27T05:49:46.505Z,39.47
2023-02-27T05:52:54.111Z,38.66
2023-02-27T05:56:07.261Z,38.34
2023-02-27T05:59:29.546Z,38.05
2023-02-27T06:02:35.569Z,37.50
2023-02-27T06:05:42.510Z,37.61
2023-02-27T06:08:52.366Z,37.02
2023-02-27T06:11:56.404Z,36.13
2023-02-27T06:15:00.574Z,36.22
2023-02-27T06:18:05.517Z,36.97
2023-02-27T06:21:14.961Z,37.27
2023-02-27T06:24:29.587Z,37.29
2023-02-27T06:27:33.979Z,36.89
2023-02-27T06:30:38.371Z,37.44
2023-02-27T06:33:42.597Z,36.99
2023-02-27T06:36:53.452Z,37.47
2023-02-27T06:39:58.766Z,38.04
2023-02-27T06:43:04.545Z,36.56
2023-02-27T06:46:18.009Z,37.16
2023-02-27T06:49:23.766Z,37.10
2023-02-27T06:52:38.488Z,36.10
2023-02-27T06:55:42.934Z,37.40
2023-02-27T06:58:47.789Z,36.21
2023-02-27T07:01:52.165Z,35.29
2023-02-27T07:05:08.260Z,36.89
2023-02-27T07:08:22.931Z,36.15
2023-02-27T07:11:27.517Z,36.39
2023-02-27T07:14:31.900Z,35.25
2023-02-27T07:17:36.544Z,34.58
2023-02-27T07:20:40.751Z,35.16
2023-02-27T07:23:45.322Z,35.77
2023-02-27T07:26:49.747Z,35.43
2023-02-27T07:30:03.828Z,35.33
2023-02-27T07:33:08.767Z,35.19
2023-02-27T07:36:13.199Z,35.69
2023-02-27T07:39:17.152Z,35.54
2023-02-27T07:42:21.417Z,36.95
2023-02-27T07:45:36.170Z,37.78
2023-02-27T07:48:41.134Z,36.39
2023-02-27T07:51:45.598Z,36.56
2023-02-27T07:54:49.948Z,36.96
2023-02-27T07:57:59.452Z,36.79
2023-02-27T08:01:03.438Z,37.21
2023-02-27T08:04:07.401Z,37.71
2023-02-27T08:07:11.692Z,36.92
2023-02-27T08:10:17.100Z,37.46
2023-02-27T08:13:58.941Z,37.48
2023-02-27T08:17:03.244Z,36.66
2023-02-27T08:20:08.540Z,36.05
2023-02-27T08:23:12.492Z,37.63
2023-02-27T08:26:16.737Z,35.61
2023-02-27T08:29:20.471Z,35.40
2023-02-27T08:32:25.283Z,35.88
2023-02-27T08:35:31.399Z,36.74
2023-02-27T08:38:35.969Z,36.69
2023-02-27T08:41:45.572Z,35.64
2023-02-27T08:45:01.123Z,35.26
2023-02-27T08:48:10.875Z,36.23
2023-02-27T08:51:19.983Z,35.06
2023-02-27T08:54:23.891Z,35.06
2023-02-27T08:57:29.070Z,36.07
2023-02-27T09:00:33.760Z,36.69
2023-02-27T09:03:37.793Z,35.24
2023-02-27T09:06:42.229Z,35.50
2023-02-27T09:09:49.710Z,35.46
2023-02-27T09:12:54.680Z,35.54
2023-02-27T09:15:59.197Z,36.09
2023-02-27T09:19:03.247Z,35.78
2023-02-27T09:22:13.224Z,35.49
2023-02-27T09:25:20.069Z,36.47
2023-02-27T09:28:28.942Z,36.60
2023-02-27T09:31:33.951Z,35.99
2023-02-27T09:34:38.236Z,35.55
2023-02-27T09:37:52.058Z,36.96
2023-02-27T09:41:02.801Z,36.63
2023-02-27T09:44:36.482Z,36.82
2023-02-27T09:48:38.302Z,35.94
2023-02-27T09:51:46.844Z,36.48
2023-02-27T09:54:50.994Z,37.75
2023-02-27T09:58:02.551Z,36.52
2023-02-27T10:01:45.649Z,35.76
2023-02-27T10:04:58.424Z,38.18
2023-02-27T10:12:40.036Z,37.88
2023-02-27T10:15:57.825Z,36.53
2023-02-27T10:19:14.450Z,37.26
2023-02-27T10:22:26.613Z,37.20
2023-02-27T10:25:40.505Z,36.86
2023-02-27T10:28:46.297Z,36.97
2023-02-27T10:32:14.530Z,35.69
2023-02-27T10:35:29.659Z,35.73
2023-02-27T10:38:48.863Z,35.35
2023-02-27T10:41:53.236Z,36.74
2023-02-27T10:45:08.258Z,37.32
2023-02-27T10:48:14.134Z,37.39
2023-02-27T10:51:33.763Z,38.02
2023-02-27T10:54:40.714Z,38.20
2023-02-27T10:57:47.212Z,38.20
2023-02-27T11:00:59.788Z,37.05
2023-02-27T11:04:03.869Z,37.33
2023-02-27T11:07:12.599Z,38.36
2023-02-27T11:10:28.721Z,39.67
2023-02-27T11:13:39.944Z,39.56
2023-02-27T11:17:01.391Z,38.78
2023-02-27T11:20:30.439Z,37.90
2023-02-27T11:24:01.727Z,38.45
2023-02-27T11:27:29.475Z,39.92
2023-02-27T11:30:38.241Z,40.14
2023-02-27T11:33:55.033Z,39.56
2023-02-27T11:37:23.730Z,40.62
2023-02-27T11:40:34.845Z,41.54
2023-02-27T11:43:47.787Z,40.11
2023-02-27T11:46:52.216Z,41.31
2023-02-27T11:49:59.435Z,40.94
2023-02-27T11:53:14.866Z,41.77
2023-02-27T11:57:10.961Z,43.16
2023-02-27T12:00:33.519Z,43.63
2023-02-27T12:04:05.091Z,44.39
2023-02-27T12:07:38.773Z,44.11
2023-02-27T12:11:04.589Z,43.43
2023-02-27T12:14:23.764Z,43.81
2023-02-27T12:17:53.993Z,44.45
2023-02-27T12:21:16.103Z,44.53
2023-02-27T12:24:41.231Z,45.51
2023-02-27T12:28:18.783Z,44.98
2023-02-27T12:31:36.410Z,46.66
2023-02-27T12:34:46.988Z,46.80
2023-02-27T12:37:51.837Z,47.11
2023-02-27T12:41:17.658Z,47.04
2023-02-27T12:45:01.589Z,47.39
2023-02-27T12:48:13.932Z,47.22
2023-02-27T12:51:56.273Z,47.45
2023-02-27T12:55:15.677Z,46.86
2023-02-27T12:58:34.737Z,46.65
2023-02-27T13:02:00.136Z,47.03
2023-02-27T13:09:10.203Z,47.34
2023-02-27T13:12:47.060Z,46.44
2023-02-27T13:15:54.541Z,45.04
2023-02-27T13:19:21.224Z,44.57
2023-02-27T13:22:54.538Z,45.38
2023-02-27T13:26:01.769Z,45.71
2023-02-27T13:29:12.874Z,44.37
2023-02-27T13:32:43.129Z,45.74
2023-02-27T13:36:11.012Z,46.05
2023-02-27T13:39:39.354Z,45.24
2023-02-27T13:42:53.285Z,46.34
2023-02-27T13:46:02.733Z,45.96
2023-02-27T13:49:06.658Z,46.77
2023-02-27T13:52:30.285Z,46.57
2023-02-27T13:55:39.172Z,45.61
2023-02-27T13:58:48.936Z,45.78
2023-02-27T14:02:12.612Z,45.50
2023-02-27T14:05:31.526Z,45.91
2023-02-27T14:08:48.589Z,45.47
2023-02-27T14:12:06.766Z,44.28
2023-02-27T14:15:26.898Z,44.27
2023-02-27T14:18:51.855Z,45.42
2023-02-27T14:22:03.619Z,44.15
2023-02-27T14:25:31.004Z,43.54
2023-02-27T14:28:56.284Z,43.26
2023-02-27T14:32:08.330Z,43.23
2023-02-27T14:35:16.796Z,43.70
2023-02-27T14:38:28.481Z,42.85
2023-02-27T14:42:01.908Z,43.20
2023-02-27T14:45:13.197Z,42.50
2023-02-27T14:48:27.856Z,43.16
2023-02-27T14:51:38.328Z,42.14
2023-02-27T14:54:43.608Z,41.79
2023-02-27T14:58:20.060Z,41.38
2023-02-27T15:01:26.068Z,42.44
2023-02-27T15:04:34.005Z,42.04
2023-02-27T15:07:40.479Z,41.28
2023-02-27T15:10:46.163Z,41.79
2023-02-27T15:14:06.841Z,41.32
2023-02-27T15:21:06.091Z,42.42
2023-02-27T15:24:25.216Z,42.79
2023-02-27T15:27:30.538Z,43.56
2023-02-27T15:30:36.214Z,42.60
2023-02-27T15:33:45.566Z,41.49
2023-02-27T15:36:56.685Z,41.36
2023-02-27T15:40:02.476Z,41.42
2023-02-27T15:43:07.151Z,41.04
2023-02-27T15:46:16.658Z,40.92
2023-02-27T15:49:24.059Z,41.64
2023-02-27T15:52:34.178Z,42.56
2023-02-27T15:56:00.131Z,42.51
2023-02-27T15:59:05.816Z,42.12
2023-02-27T16:02:20.963Z,42.41
2023-02-27T16:05:35.448Z,42.75
2023-02-27T16:08:47.066Z,42.12
2023-02-27T16:12:37.450Z,43.01
2023-02-27T16:15:45.083Z,43.56
2023-02-27T16:18:54.595Z,44.22
2023-02-27T16:22:15.294Z,44.38
2023-02-27T16:25:20.885Z,43.75
2023-02-27T16:28:37.680Z,43.52
2023-02-27T16:31:53.520Z,43.68
2023-02-27T16:35:17.761Z,43.44
2023-02-27T16:38:23.146Z,44.65
2023-02-27T16:41:37.111Z,44.26
2023-02-27T16:44:41.077Z,44.08
2023-02-27T16:47:48.415Z,44.04
2023-02-27T16:50:52.571Z,44.39
2023-02-27T16:54:11.627Z,45.81
2023-02-27T16:57:18.132Z,45.97
2023-02-27T17:00:26.981Z,45.66
2023-02-27T17:03:31.666Z,46.14
2023-02-27T17:06:35.793Z,47.46
2023-02-27T17:09:40.130Z,45.99
2023-02-27T17:12:44.830Z,47.01
2023-02-27T17:15:48.897Z,46.45
2023-02-27T17:18:53.010Z,47.04
2023-02-27T17:22:01.642Z,47.37
2023-02-27T17:25:13.371Z,47.66
2023-02-27T17:28:17.783Z,48.67
2023-02-27T17:31:23.369Z,49.44
2023-02-27T17:34:27.940Z,49.73
2023-02-27T17:37:42.189Z,48.70
2023-02-27T17:40:52.372Z,47.57
2023-02-27T17:43:57.701Z,47.42
2023-02-27T17:47:02.858Z,48.76
2023-02-27T17:50:15.398Z,49.45
2023-02-27T17:53:26.804Z,50.67
2023-02-27T17:56:31.248Z,50.19
2023-02-27T17:59:35.323Z,51.80
2023-02-27T18:02:39.902Z,52.05
2023-02-27T18:05:53.247Z,52.81
2023-02-27T18:09:07.207Z,51.97
2023-02-27T18:12:15.368Z,52.55
2023-02-27T18:15:19.398Z,52.84
2023-02-27T18:18:36.863Z,52.13
2023-02-27T18:21:52.764Z,52.36
2023-02-27T18:25:02.041Z,53.52
2023-02-27T18:28:08.330Z,53.59
2023-02-27T18:31:25.248Z,54.88
2023-02-27T18:34:41.099Z,53.01
2023-02-27T18:37:46.114Z,55.20
2023-02-27T18:40:55.542Z,56.28
2023-02-27T18:44:01.628Z,56.04
2023-02-27T18:47:05.624Z,55.58
2023-02-27T18:50:20.823Z,53.27
2023-02-27T18:53:30.036Z,54.43
2023-02-27T18:56:39.232Z,53.52
2023-02-27T18:59:48.687Z,54.99
2023-02-27T19:02:53.059Z,57.30
2023-02-27T19:05:57.260Z,56.13
2023-02-27T19:09:01.580Z,62.40
2023-02-27T19:12:13.491Z,65.61
2023-02-27T19:15:27.950Z,69.39
2023-02-27T19:18:44.014Z,69.40
2023-02-27T19:21:52.922Z,72.44
2023-02-27T19:24:57.901Z,75.58
2023-02-27T19:28:03.029Z,76.13
2023-02-27T19:31:16.010Z,78.51
2023-02-27T19:34:20.219Z,79.87
2023-02-27T19:37:28.869Z,81.63
2023-02-27T19:40:37.571Z,83.28
2023-02-27T19:43:52.893Z,83.58
2023-02-27T19:46:57.102Z,83.50
2023-02-27T19:50:01.041Z,87.92
2023-02-27T19:53:08.785Z,91.52
2023-02-27T19:56:15.925Z,92.43
2023-02-27T19:59:25.372Z,94.78
2023-02-27T20:02:29.589Z,94.16
2023-02-27T20:05:45.792Z,95.22
2023-02-27T20:08:59.410Z,92.34
2023-02-27T20:12:03.566Z,90.92
2023-02-27T20:15:11.877Z,88.33
2023-02-27T20:18:20.909Z,88.47
2023-02-27T20:21:27.210Z,90.02
2023-02-27T20:24:35.806Z,87.94
2023-02-27T20:27:45.321Z,88.35
2023-02-27T20:30:49.670Z,86.89
2023-02-27T20:33:53.640Z,87.49
2023-02-27T20:36:58.154Z,87.75
2023-02-27T20:40:04.627Z,85.90
2023-02-27T20:43:08.218Z,87.59
2023-02-27T20:46:20.089Z,85.44
2023-02-27T20:49:28.814Z,86.03
2023-02-27T20:52:33.807Z,85.95
2023-02-27T20:55:38.189Z,85.18
2023-02-27T20:58:42.698Z,85.91
2023-02-27T21:01:51.795Z,82.06
2023-02-27T21:04:58.775Z,81.07
2023-02-27T21:08:02.800Z,84.91
2023-02-27T21:11:28.052Z,84.33
2023-02-27T21:14:32.602Z,87.29
2023-02-27T21:17:36.789Z,86.52
2023-02-27T21:20:46.617Z,87.25
2023-02-27T21:24:02.385Z,88.10
2023-02-27T21:27:06.687Z,85.62
2023-02-27T21:30:11.431Z,85.08
2023-02-27T21:33:15.686Z,86.02
2023-02-27T21:36:24.432Z,88.37
2023-02-27T21:39:30.060Z,87.20
2023-02-27T21:42:44.370Z,85.66
2023-02-27T21:45:52.084Z,83.28
2023-02-27T21:48:58.886Z,82.12
2023-02-27T21:52:03.577Z,81.35
2023-02-27T21:55:08.647Z,77.16
2023-02-27T21:58:12.510Z,80.07
2023-02-27T22:01:28.735Z,85.98
2023-02-27T22:04:34.850Z,80.53
2023-02-27T22:07:43.720Z,78.43
2023-02-27T22:11:00.065Z,81.23
2023-02-27T22:14:10.367Z,78.74
2023-02-27T22:17:15.882Z,81.42
2023-02-27T22:20:20.230Z,82.35
2023-02-27T22:23:24.245Z,81.48
2023-02-27T22:26:39.468Z,77.73
2023-02-27T22:29:43.485Z,77.08
2023-02-27T22:32:53.081Z,77.96
2023-02-27T22:35:57.408Z,78.89
2023-02-27T22:39:02.105Z,79.47
2023-02-27T22:42:06.637Z,83.10
2023-02-27T22:45:10.910Z,80.82
2023-02-27T22:48:15.594Z,79.17
2023-02-27T22:51:19.770Z,80.78
2023-02-27T22:54:29.836Z,80.73
2023-02-27T22:57:44.048Z,80.02
2023-02-27T23:00:48.620Z,80.41
2023-02-27T23:04:06.201Z,84.16
2023-02-27T23:07:15.332Z,83.53
2023-02-27T23:10:19.094Z,83.87
2023-02-27T23:13:23.687Z,84.73
2023-02-27T23:16:37.827Z,86.63
2023-02-27T23:19:55.047Z,83.23
2023-02-27T23:22:59.257Z,82.66
2023-02-27T23:26:08.580Z,80.45
2023-02-27T23:29:19.972Z,81.37
2023-02-27T23:32:25.096Z,79.77
2023-02-27T23:35:29.774Z,81.77
2023-02-27T23:38:46.966Z,80.45
2023-02-27T23:41:52.343Z,78.70
2023-02-27T23:45:16.893Z,82.92
2023-02-27T23:48:22.379Z,79.17
2023-02-27T23:51:37.436Z,74.85
2023-02-27T23:54:46.064Z,75.04
2023-02-27T23:57:54.649Z,73.42
